Time;durP1;ratioP1;P1;durP2;ratioP2;P2;SDS_P1;SDS_P2;PMS_P1;PMS_P2;Temp;Humidity;BMP_temperature;BMP_pressure;BME280_temperature;BME280_humidity;BME280_pressure;Samples;Min_cycle;Max_cycle;Signal;HPM_P1;HPM_P2
2022/11/02 00:01:44;;;;;;;11.23;5.05;;;;;;;11.76;100.00;99172.72;5097545;28;20032;-62
2022/11/02 00:04:09;;;;;;;12.82;5.85;;;;;;;11.73;100.00;99176.41;5079256;28;20031;-62
2022/11/02 00:06:35;;;;;;;13.05;5.88;;;;;;;11.53;100.00;99139.13;5094793;28;20122;-62
2022/11/02 00:09:01;;;;;;;11.43;5.03;;;;;;;11.75;100.00;99171.88;5104956;27;20032;-62
2022/11/02 00:11:26;;;;;;;9.98;5.68;;;;;;;11.78;100.00;99168.19;5086450;28;20029;-61
2022/11/02 00:13:52;;;;;;;15.27;5.13;;;;;;;11.79;100.00;99164.63;5097373;28;20027;-61
2022/11/02 00:16:18;;;;;;;12.48;5.30;;;;;;;11.80;100.00;99174.91;5090513;28;20023;-61
2022/11/02 00:18:45;;;;;;;11.98;5.47;;;;;;;11.77;100.00;99166.53;5093915;28;20757;-61
2022/11/02 00:21:11;;;;;;;9.93;5.43;;;;;;;11.71;100.00;99165.31;5095781;28;20019;-61
2022/11/02 00:23:37;;;;;;;14.93;5.70;;;;;;;11.59;100.00;99136.00;5097498;28;20552;-61
2022/11/02 00:26:03;;;;;;;13.82;5.43;;;;;;;11.81;100.00;99180.94;5095541;28;20024;-60
2022/11/02 00:28:29;;;;;;;11.68;5.45;;;;;;;11.74;100.00;99175.47;5115524;27;20363;-62
2022/11/02 00:30:54;;;;;;;10.07;5.20;;;;;;;11.42;100.00;99136.69;5082297;28;20027;-60
2022/11/02 00:33:20;;;;;;;10.45;4.78;;;;;;;11.65;100.00;99164.09;5097206;28;20035;-61
2022/11/02 00:35:45;;;;;;;12.25;4.95;;;;;;;11.62;100.00;99168.75;5122855;27;20027;-61
2022/11/02 00:38:11;;;;;;;11.43;5.28;;;;;;;11.66;100.00;99176.16;5092259;28;20469;-61
2022/11/02 00:40:37;;;;;;;12.25;4.88;;;;;;;11.65;100.00;99179.72;5090269;28;20050;-63
2022/11/02 00:43:02;;;;;;;12.57;5.43;;;;;;;11.66;100.00;99173.56;5096103;28;20466;-60
2022/11/02 00:45:28;;;;;;;11.40;5.10;;;;;;;11.72;100.00;99174.78;5084704;28;20496;-61
2022/11/02 00:47:53;;;;;;;10.98;5.32;;;;;;;11.71;100.00;99176.53;5100249;28;20577;-61
2022/11/02 00:50:19;;;;;;;9.82;5.03;;;;;;;11.69;100.00;99175.06;5099287;28;20444;-61
2022/11/02 00:52:44;;;;;;;10.57;4.90;;;;;;;11.66;100.00;99172.72;5096916;28;20024;-61
2022/11/02 00:55:10;;;;;;;15.30;4.80;;;;;;;11.76;100.00;99173.53;5098027;28;20043;-61
2022/11/02 00:57:37;;;;;;;13.98;5.40;;;;;;;11.79;100.00;99170.66;5101349;28;20084;-61
2022/11/02 01:00:05;;;;;;;10.00;4.80;;;;;;;11.78;100.00;99170.81;5096512;28;20027;-60
2022/11/02 01:02:32;;;;;;;9.93;5.03;;;;;;;11.73;100.00;99166.81;5114244;27;20092;-61
2022/11/02 01:04:58;;;;;;;9.02;4.07;;;;;;;11.76;100.00;99162.31;5096277;28;20493;-61
2022/11/02 01:07:23;;;;;;;12.43;4.32;;;;;;;11.83;100.00;99173.81;5093938;28;20028;-65
2022/11/02 01:09:49;;;;;;;9.48;4.80;;;;;;;11.77;100.00;99161.31;5091766;28;20746;-61
2022/11/02 01:12:14;;;;;;;10.50;4.50;;;;;;;11.81;100.00;99163.53;5092280;27;20035;-62
2022/11/02 01:14:40;;;;;;;11.13;5.07;;;;;;;11.80;100.00;99163.66;5092610;28;20020;-61
2022/11/02 01:17:05;;;;;;;10.27;4.22;;;;;;;11.68;100.00;99174.25;5081862;27;20039;-62
2022/11/02 01:19:31;;;;;;;10.55;4.00;;;;;;;11.58;100.00;99173.41;5102851;27;20588;-61
2022/11/02 01:21:56;;;;;;;10.23;4.43;;;;;;;11.63;100.00;99166.00;5087615;28;20036;-61
2022/11/02 01:24:21;;;;;;;8.65;4.07;;;;;;;11.50;100.00;99129.00;5089115;28;20020;-61
2022/11/02 01:26:51;;;;;;;9.63;4.30;;;;;;;11.73;100.00;99166.00;5111394;27;20027;-61
2022/11/02 01:29:16;;;;;;;10.98;4.80;;;;;;;11.75;100.00;99166.69;5081522;28;20427;-61
2022/11/02 01:31:42;;;;;;;8.63;4.47;;;;;;;11.64;100.00;99165.03;5108598;27;20034;-61
2022/11/02 01:34:07;;;;;;;9.13;4.30;;;;;;;11.66;100.00;99157.09;5100566;28;20700;-61
2022/11/02 01:36:33;;;;;;;9.68;3.83;;;;;;;11.61;100.00;99173.16;5095540;27;20063;-62
2022/11/02 01:38:58;;;;;;;9.88;4.13;;;;;;;11.48;100.00;99163.00;5098602;28;20447;-61
2022/11/02 01:41:24;;;;;;;13.30;4.57;;;;;;;11.27;100.00;99137.06;5096808;28;20036;-61
2022/11/02 01:43:53;;;;;;;12.05;4.28;;;;;;;11.14;100.00;99133.94;5102240;28;20020;-61
2022/11/02 01:46:22;;;;;;;11.80;4.32;;;;;;;11.44;100.00;99160.78;5088546;28;20124;-61
2022/11/02 01:49:04;;;;;;;10.77;4.18;;;;;;;11.45;100.00;99155.44;5105022;27;20037;-63
2022/11/02 01:51:33;;;;;;;11.15;5.00;;;;;;;11.48;100.00;99157.78;5119653;27;20032;-61
2022/11/02 01:54:15;;;;;;;9.00;4.70;;;;;;;11.53;100.00;99154.75;5099513;27;20028;-61
2022/11/02 01:56:41;;;;;;;9.95;4.13;;;;;;;11.49;100.00;99150.78;5096227;28;20045;-62
2022/11/02 01:59:11;;;;;;;10.43;4.82;;;;;;;11.31;100.00;99128.03;5079641;28;20062;-61
2022/11/02 02:01:36;;;;;;;;;;;;;;;11.53;100.00;99145.16;5099547;28;20035;-61
2022/11/02 02:04:02;;;;;;;10.32;4.50;;;;;;;11.62;100.00;99148.72;5100111;28;19952;-61
2022/11/02 02:06:27;;;;;;;9.05;4.10;;;;;;;11.54;100.00;99144.22;5102772;28;20103;-61
2022/11/02 02:08:54;;;;;;;9.85;4.70;;;;;;;11.51;100.00;99141.06;5103508;27;20035;-61
2022/11/02 02:11:28;;;;;;;9.18;4.40;;;;;;;11.58;100.00;99142.16;5099057;28;20035;-62
2022/11/02 02:14:08;;;;;;;10.60;4.43;;;;;;;11.59;100.00;99149.03;5099021;28;20032;-61
2022/11/02 02:17:02;;;;;;;10.02;4.70;;;;;;;11.52;100.00;99134.91;5095791;28;20059;-61
2022/11/02 02:19:46;;;;;;;10.70;4.65;;;;;;;11.46;100.00;99144.09;5096693;27;20607;-61
2022/11/02 02:22:36;;;;;;;16.58;5.80;;;;;;;11.41;100.00;99138.47;5099512;28;20030;-61
2022/11/02 02:25:23;;;;;;;9.60;4.32;;;;;;;11.40;100.00;99142.00;5101595;28;20024;-62
2022/11/02 02:27:54;;;;;;;12.02;4.32;;;;;;;11.47;100.00;99143.13;5100179;27;20107;-60
2022/11/02 02:30:19;;;;;;;9.63;5.18;;;;;;;11.48;100.00;99149.97;5099314;28;20066;-61
2022/11/02 02:33:00;;;;;;;13.60;4.93;;;;;;;11.47;100.00;99148.31;5113783;27;20671;-61
2022/11/02 02:35:34;;;;;;;9.80;4.93;;;;;;;11.40;100.00;99142.00;5096937;28;20024;-61
2022/11/02 02:38:02;;;;;;;10.50;4.72;;;;;;;11.36;100.00;99145.84;5096606;28;20152;-61
2022/11/02 02:40:36;;;;;;;11.13;5.07;;;;;;;11.36;100.00;99153.66;5097443;28;20138;-62
2022/11/02 02:43:21;;;;;;;9.73;4.75;;;;;;;11.39;100.00;99132.56;5097348;28;20040;-61
2022/11/02 02:45:53;;;;;;;11.30;4.75;;;;;;;11.39;100.00;99135.19;5100055;28;20042;-61
2022/11/02 02:48:20;;;;;;;10.68;4.95;;;;;;;11.37;100.00;99136.25;5110949;27;20164;-60
2022/11/02 02:50:53;;;;;;;10.40;4.32;;;;;;;11.06;100.00;99087.78;5114812;27;20028;-62
2022/11/02 02:53:49;;;;;;;11.95;5.05;;;;;;;11.33;100.00;99131.34;5101651;28;20747;-61
2022/11/02 02:56:17;;;;;;;9.90;4.22;;;;;;;11.17;100.00;99097.22;5077952;28;20558;-61
2022/11/02 02:59:05;;;;;;;13.18;5.32;;;;;;;11.39;100.00;99124.75;5112841;27;20039;-61
2022/11/02 03:01:31;;;;;;;12.05;4.80;;;;;;;11.31;100.00;99125.44;5095766;28;20027;-61
2022/11/02 03:03:56;;;;;;;10.65;4.03;;;;;;;11.35;100.00;99133.78;5098718;28;20538;-61
2022/11/02 03:06:25;;;;;;;11.70;4.80;;;;;;;11.28;100.00;99130.09;5101321;28;20531;-61
2022/11/02 03:09:12;;;;;;;10.93;4.57;;;;;;;11.32;100.00;99127.09;5097715;28;20135;-61
2022/11/02 03:12:05;;;;;;;10.20;4.32;;;;;;;11.08;100.00;99085.84;5096647;28;20565;-60
2022/11/02 03:14:42;;;;;;;12.40;4.63;;;;;;;11.40;100.00;99133.38;5095673;28;20565;-61
2022/11/02 03:17:17;;;;;;;11.48;4.45;;;;;;;11.33;100.00;99127.91;5088767;28;20028;-62
2022/11/02 03:19:57;;;;;;;10.70;4.00;;;;;;;11.32;100.00;99126.28;5107301;27;20108;-61
2022/11/02 03:22:33;;;;;;;9.75;4.72;;;;;;;11.30;100.00;99115.19;5094576;27;20031;-61
2022/11/02 03:25:09;;;;;;;11.20;4.70;;;;;;;11.26;100.00;99112.03;5099020;28;20031;-61
2022/11/02 03:27:57;;;;;;;10.57;4.95;;;;;;;11.33;100.00;99123.53;5101731;27;20065;-61
2022/11/02 03:30:25;;;;;;;11.70;3.97;;;;;;;11.33;100.00;99125.28;5095719;28;20043;-61
2022/11/02 03:32:50;;;;;;;11.02;3.88;;;;;;;11.38;100.00;99123.09;5097224;28;20118;-61
2022/11/02 03:35:53;;;;;;;10.95;3.95;;;;;;;11.37;100.00;99124.06;5095581;28;20127;-62
2022/11/02 03:38:22;;;;;;;9.40;4.32;;;;;;;11.43;100.00;99118.31;5054023;28;20520;-61
2022/11/02 03:40:51;;;;;;;10.50;5.00;;;;;;;11.30;100.00;99123.00;5104707;27;20027;-61
2022/11/02 03:43:17;;;;;;;13.98;4.03;;;;;;;11.00;100.00;99080.47;5098467;28;20564;-60
2022/11/02 03:45:47;;;;;;;12.05;4.13;;;;;;;11.28;100.00;99120.50;5112585;27;20028;-61
2022/11/02 03:48:13;;;;;;;11.50;4.45;;;;;;;11.38;100.00;99120.50;5083325;28;20046;-60
2022/11/02 03:50:43;;;;;;;11.45;3.63;;;;;;;11.27;100.00;99134.47;5078090;28;20291;-61
2022/11/02 03:53:11;;;;;;;;;;;;;;;11.33;100.00;99133.94;5062590;28;20084;-61
2022/11/02 03:55:41;;;;;;;8.13;3.80;;;;;;;11.22;100.00;99128.84;5075266;28;19930;-61
2022/11/02 03:58:09;;;;;;;8.63;3.72;;;;;;;11.16;100.00;99117.22;5079349;28;20030;-61
2022/11/02 04:00:34;;;;;;;15.30;4.45;;;;;;;11.22;100.00;99131.44;5077530;28;20044;-61
2022/11/02 04:03:05;;;;;;;10.15;4.32;;;;;;;11.22;100.00;99126.25;5071067;28;20111;-62
2022/11/02 04:05:33;;;;;;;9.57;3.83;;;;;;;11.24;100.00;99129.53;5091343;27;20024;-61
2022/11/02 04:16:13;;;;;;;10.82;4.18;;;;;;;11.22;100.00;99134.06;5105551;27;20042;-60
2022/11/02 04:21:22;;;;;;;10.52;4.43;;;;;;;11.20;100.00;99127.34;5094959;28;20050;-61
2022/11/02 04:26:32;;;;;;;9.15;3.97;;;;;;;11.15;100.00;99138.16;5104490;28;20096;-61
2022/11/02 04:28:57;;;;;;;11.80;4.10;;;;;;;10.93;100.00;99092.38;5096959;28;20032;-61
2022/11/02 04:31:23;;;;;;;10.27;4.10;;;;;;;11.07;100.00;99117.22;5097801;28;20529;-62
2022/11/02 04:33:48;;;;;;;9.13;3.70;;;;;;;11.18;100.00;99134.47;5098370;28;20028;-61
2022/11/02 04:36:13;;;;;;;13.32;3.92;;;;;;;11.10;100.00;99119.56;5090784;28;20043;-61
2022/11/02 04:38:39;;;;;;;12.60;4.63;;;;;;;11.08;100.00;99114.47;5087388;28;20040;-61
2022/11/02 04:43:53;;;;;;;10.70;4.20;;;;;;;10.79;100.00;99083.22;5093614;28;20093;-61
2022/11/02 04:46:19;;;;;;;11.50;4.32;;;;;;;11.09;100.00;99126.50;5097482;28;20027;-61
2022/11/02 04:48:45;;;;;;;10.30;3.88;;;;;;;11.14;100.00;99133.94;5099430;28;20030;-62
2022/11/02 04:51:10;;;;;;;9.68;3.65;;;;;;;10.92;100.00;99096.78;5098553;28;20027;-61
2022/11/02 04:53:36;;;;;;;12.70;4.22;;;;;;;10.98;100.00;99111.03;5099845;28;20035;-61
2022/11/02 04:56:01;;;;;;;10.50;3.78;;;;;;;11.19;100.00;99136.94;5093471;28;20024;-61
2022/11/02 04:58:27;;;;;;;8.82;3.65;;;;;;;11.04;100.00;99107.06;5090113;28;20024;-61
2022/11/02 05:00:52;;;;;;;12.35;4.03;;;;;;;11.20;100.00;99133.38;5093149;28;20067;-61
2022/11/02 05:03:17;;;;;;;10.40;3.97;;;;;;;11.20;100.00;99133.38;5096351;28;20039;-61
2022/11/02 05:05:43;;;;;;;9.40;4.00;;;;;;;11.24;100.00;99139.13;5102335;28;20027;-61
2022/11/02 05:08:08;;;;;;;10.38;3.90;;;;;;;11.18;100.00;99130.09;5079447;28;20032;-61
2022/11/02 05:10:34;;;;;;;11.95;4.10;;;;;;;11.01;100.00;99102.97;5067822;28;20070;-62
2022/11/02 05:13:00;;;;;;;9.10;3.95;;;;;;;10.95;100.00;99086.13;5100496;28;20032;-61
2022/11/02 05:15:25;;;;;;;9.20;4.35;;;;;;;11.13;100.00;99122.69;5079592;28;20019;-61
2022/11/02 05:17:50;;;;;;;10.98;3.63;;;;;;;11.13;100.00;99127.06;5100530;28;20031;-60
2022/11/02 05:20:16;;;;;;;9.75;3.40;;;;;;;10.96;100.00;99089.53;5093309;28;20027;-60
2022/11/02 05:22:42;;;;;;;10.20;3.60;;;;;;;11.13;100.00;99121.84;5088373;28;20027;-61
2022/11/02 05:25:11;;;;;;;10.20;3.75;;;;;;;11.16;100.00;99121.59;5093706;28;20030;-61
2022/11/02 05:27:37;;;;;;;11.02;4.07;;;;;;;11.09;100.00;99129.13;5100397;28;20688;-61
2022/11/02 05:30:04;;;;;;;10.48;4.43;;;;;;;11.06;100.00;99125.97;5097563;28;20020;-61
2022/11/02 05:32:29;;;;;;;12.25;4.18;;;;;;;11.10;100.00;99128.16;5094979;28;20031;-61
2022/11/02 05:34:55;;;;;;;12.15;3.40;;;;;;;11.11;100.00;99139.41;5075508;28;20027;-61
2022/11/02 05:37:20;;;;;;;11.23;3.55;;;;;;;11.22;100.00;99136.66;5092448;28;20023;-61
2022/11/02 05:39:46;;;;;;;12.27;3.70;;;;;;;11.13;100.00;99135.72;5094609;28;20072;-61
2022/11/02 05:42:11;;;;;;;9.02;3.58;;;;;;;11.23;100.00;99137.50;5077695;28;20093;-61
2022/11/02 05:44:36;;;;;;;9.05;3.50;;;;;;;11.27;100.00;99139.69;5098451;28;20040;-61
2022/11/02 05:47:02;;;;;;;10.90;3.55;;;;;;;11.05;100.00;99104.31;5094026;28;20043;-61
2022/11/02 05:49:28;;;;;;;11.52;3.70;;;;;;;11.33;100.00;99148.72;5101599;28;20030;-61
2022/11/02 05:51:53;;;;;;;11.52;3.20;;;;;;;11.30;100.00;99146.41;5101387;28;20032;-61
2022/11/02 05:54:19;;;;;;;11.90;3.72;;;;;;;11.33;100.00;99141.75;5094078;28;20032;-60
2022/11/02 05:56:45;;;;;;;9.60;3.38;;;;;;;11.32;100.00;99140.09;5095860;28;20063;-61
2022/11/02 05:59:10;;;;;;;9.63;2.80;;;;;;;11.33;100.00;99152.19;5094617;28;20827;-62
2022/11/02 06:01:36;;;;;;;19.20;5.05;;;;;;;11.28;100.00;99156.97;5090058;28;20482;-62
2022/11/02 06:04:02;;;;;;;11.02;3.85;;;;;;;11.28;100.00;99148.31;5094970;28;20042;-62
2022/11/02 06:06:27;;;;;;;7.60;3.35;;;;;;;11.31;100.00;99153.25;5073807;27;20135;-63
2022/11/02 06:08:53;;;;;;;11.02;4.35;;;;;;;11.32;100.00;99160.94;5110458;27;20020;-62
2022/11/02 06:11:19;;;;;;;13.88;4.03;;;;;;;11.29;100.00;99156.00;5097873;28;20036;-62
2022/11/02 06:13:49;;;;;;;8.52;3.67;;;;;;;11.32;100.00;99168.75;5114740;27;20038;-62
2022/11/02 06:16:14;;;;;;;10.57;3.78;;;;;;;11.32;100.00;99163.53;5089688;27;20038;-62
2022/11/02 06:18:40;;;;;;;9.55;3.65;;;;;;;11.30;100.00;99167.25;5089912;28;20027;-62
2022/11/02 06:21:06;;;;;;;7.10;3.67;;;;;;;11.17;100.00;99170.09;5074300;28;20082;-61
2022/11/02 06:23:32;;;;;;;13.15;4.53;;;;;;;11.01;100.00;99172.41;5093082;28;20405;-62
2022/11/02 06:25:58;;;;;;;9.55;4.60;;;;;;;11.13;100.00;99179.97;5079573;28;20562;-62
2022/11/02 06:28:24;;;;;;;9.82;4.70;;;;;;;11.12;100.00;99186.09;5114025;27;20036;-62
2022/11/02 06:30:50;;;;;;;10.73;4.65;;;;;;;11.02;100.00;99189.66;5069994;28;20109;-62
2022/11/02 06:33:16;;;;;;;11.68;4.70;;;;;;;10.93;100.00;99192.09;5099414;28;20106;-62
2022/11/02 06:35:51;;;;;;;11.35;5.78;;;;;;;11.04;100.00;99195.53;5093713;27;20039;-62
2022/11/02 06:38:16;;;;;;;13.07;6.50;;;;;;;10.94;100.00;99185.94;5094733;27;20062;-62
2022/11/02 06:40:42;;;;;;;14.57;5.70;;;;;;;11.06;100.00;99212.69;5092662;27;20031;-62
2022/11/02 06:43:08;;;;;;;12.18;4.82;;;;;;;11.05;100.00;99215.41;5078602;28;20024;-62
2022/11/02 06:45:34;;;;;;;9.82;5.68;;;;;;;11.00;100.00;99218.41;5097106;28;20191;-62
2022/11/02 06:47:59;;;;;;;10.95;5.40;;;;;;;11.10;100.00;99221.03;5092014;28;20385;-62
2022/11/02 06:50:25;;;;;;;12.30;5.32;;;;;;;11.08;100.00;99226.38;5098888;28;20031;-62
2022/11/02 06:52:50;;;;;;;10.60;4.78;;;;;;;11.03;100.00;99215.53;5091056;28;20024;-63
2022/11/02 06:55:17;;;;;;;12.85;4.38;;;;;;;11.00;100.00;99218.41;5108685;27;20044;-62
2022/11/02 06:57:44;;;;;;;9.95;4.13;;;;;;;11.04;100.00;99209.34;5094155;28;20028;-62
2022/11/02 07:00:16;;;;;;;14.93;5.22;;;;;;;11.01;100.00;99209.66;5114507;27;20042;-62
2022/11/02 07:02:43;;;;;;;10.80;4.90;;;;;;;11.00;100.00;99196.75;5094887;28;20078;-62
2022/11/02 07:05:08;;;;;;;13.48;4.20;;;;;;;11.20;100.00;99221.88;5082761;28;20039;-62
2022/11/02 07:07:33;;;;;;;9.15;3.42;;;;;;;11.21;100.00;99223.53;5095263;28;20027;-62
2022/11/02 07:09:59;;;;;;;12.98;3.58;;;;;;;11.24;100.00;99225.03;5093260;28;20027;-62
2022/11/02 07:12:24;;;;;;;9.18;3.25;;;;;;;11.14;100.00;99219.81;5094552;27;20039;-62
2022/11/02 07:14:50;;;;;;;11.73;3.63;;;;;;;11.15;100.00;99230.09;5105715;27;20100;-62
2022/11/02 07:17:15;;;;;;;10.40;3.50;;;;;;;11.23;100.00;99224.22;5098322;27;20037;-62
2022/11/02 07:19:41;;;;;;;10.35;3.30;;;;;;;11.31;100.00;99237.38;5096500;27;20032;-62
2022/11/02 07:22:06;;;;;;;10.15;3.58;;;;;;;11.23;100.00;99223.41;5085838;28;20027;-62
2022/11/02 07:24:32;;;;;;;13.70;3.60;;;;;;;11.37;100.00;99237.81;5095027;28;20171;-62
2022/11/02 07:26:57;;;;;;;14.10;3.25;;;;;;;11.39;100.00;99243.69;5096453;28;20488;-62
2022/11/02 07:29:23;;;;;;;18.63;4.15;;;;;;;11.42;100.00;99246.84;5088600;28;20444;-62
2022/11/02 07:31:48;;;;;;;14.38;4.00;;;;;;;11.42;100.00;99252.06;5093459;28;20024;-61
2022/11/02 07:34:14;;;;;;;9.65;3.63;;;;;;;11.38;100.00;99253.28;5077099;28;20127;-61
2022/11/02 07:36:39;;;;;;;10.85;3.20;;;;;;;11.34;100.00;99257.94;5088848;28;20050;-61
2022/11/02 07:39:08;;;;;;;13.00;4.10;;;;;;;11.29;100.00;99254.91;5079596;28;20031;-60
2022/11/02 07:41:34;;;;;;;9.73;3.35;;;;;;;11.30;100.00;99250.56;5105823;27;20032;-61
2022/11/02 07:44:00;;;;;;;13.18;5.68;;;;;;;11.19;100.00;99255.84;5086445;28;20027;-61
2022/11/02 07:46:25;;;;;;;10.82;3.50;;;;;;;11.01;100.00;99211.44;5074728;28;20511;-61
2022/11/02 07:48:50;;;;;;;11.70;3.80;;;;;;;11.23;100.00;99236.41;5095690;28;20031;-61
2022/11/02 07:51:16;;;;;;;8.27;3.20;;;;;;;11.01;100.00;99194.03;5090450;28;20024;-61
2022/11/02 07:53:42;;;;;;;11.70;4.28;;;;;;;11.28;100.00;99240.25;5090992;27;20046;-61
2022/11/02 07:56:07;;;;;;;12.23;3.15;;;;;;;11.28;100.00;99235.06;5090619;28;20150;-61
2022/11/02 07:58:33;;;;;;;10.55;3.83;;;;;;;11.20;100.00;99200.25;5094954;28;20122;-62
2022/11/02 08:00:59;;;;;;;12.65;3.47;;;;;;;11.33;100.00;99238.09;5075136;28;20110;-61
2022/11/02 08:03:24;;;;;;;12.68;4.13;;;;;;;11.35;100.00;99230.97;5092523;28;20142;-61
2022/11/02 08:05:50;;;;;;;10.65;3.58;;;;;;;11.34;100.00;99237.13;5095432;27;20567;-61
2022/11/02 08:08:18;;;;;;;9.00;3.33;;;;;;;11.37;100.00;99243.81;5094434;28;20480;-61
2022/11/02 08:10:44;;;;;;;10.75;3.60;;;;;;;11.41;100.00;99241.78;5096543;28;20028;-61
2022/11/02 08:13:12;;;;;;;10.32;3.70;;;;;;;11.45;100.00;99243.19;5098227;28;20407;-61
2022/11/02 08:15:38;;;;;;;8.70;3.05;;;;;;;11.40;100.00;99240.16;5086921;28;20127;-61
2022/11/02 08:18:15;;;;;;;13.30;3.95;;;;;;;11.32;100.00;99241.63;5112007;27;20156;-61
2022/11/02 08:20:40;;;;;;;11.90;3.40;;;;;;;11.36;100.00;99244.78;5086623;28;20031;-61
2022/11/02 08:23:06;;;;;;;8.32;3.60;;;;;;;11.31;100.00;99236.56;5095870;28;20027;-61
2022/11/02 08:25:32;;;;;;;12.35;3.50;;;;;;;11.31;100.00;99245.19;5094388;28;20076;-61
2022/11/02 08:27:58;;;;;;;14.02;3.90;;;;;;;11.35;100.00;99245.75;5097830;28;20051;-60
2022/11/02 08:30:26;;;;;;;7.80;2.85;;;;;;;11.38;100.00;99239.47;5116346;28;20539;-61
2022/11/02 08:32:51;;;;;;;13.05;3.60;;;;;;;11.42;100.00;99246.84;5090774;28;20111;-61
2022/11/02 08:35:17;;;;;;;8.02;3.25;;;;;;;11.19;100.00;99190.75;5111412;28;20186;-60
2022/11/02 08:37:42;;;;;;;8.60;3.03;;;;;;;11.41;100.00;99239.16;5090578;28;20020;-61
2022/11/02 08:40:08;;;;;;;9.70;3.85;;;;;;;11.41;100.00;99247.81;5092849;28;20030;-61
2022/11/02 08:42:33;;;;;;;10.95;3.30;;;;;;;11.37;100.00;99232.59;5087477;28;20404;-61
2022/11/02 08:44:59;;;;;;;8.35;3.63;;;;;;;11.42;100.00;99239.03;5123785;27;20023;-61
2022/11/02 08:47:24;;;;;;;8.98;3.63;;;;;;;11.44;100.00;99234.53;5093005;28;20118;-61
2022/11/02 08:49:50;;;;;;;13.48;3.58;;;;;;;11.22;100.00;99193.13;5094614;28;20016;-61
2022/11/02 08:52:17;;;;;;;10.18;2.85;;;;;;;11.49;100.00;99218.50;5096497;28;20027;-61
2022/11/02 08:54:43;;;;;;;6.20;2.88;;;;;;;11.70;100.00;99226.19;5074646;28;20113;-61
2022/11/02 08:57:08;;;;;;;8.05;3.20;;;;;;;11.68;100.00;99221.13;5075406;28;20640;-61
2022/11/02 08:59:33;;;;;;;12.27;3.75;;;;;;;11.70;100.00;99228.78;5095965;28;20118;-62
2022/11/02 09:01:59;;;;;;;11.05;3.42;;;;;;;11.65;100.00;99220.56;5090210;28;20058;-62
2022/11/02 09:04:25;;;;;;;12.30;3.75;;;;;;;11.65;100.00;99220.56;5095221;28;20489;-63
2022/11/02 09:06:50;;;;;;;11.10;4.20;;;;;;;11.52;100.00;99192.19;5091991;28;20020;-62
2022/11/02 09:09:16;;;;;;;10.95;3.72;;;;;;;11.79;100.00;99219.31;5078823;28;20142;-62
2022/11/02 09:11:41;;;;;;;10.63;4.60;;;;;;;11.83;100.00;99218.94;5091397;28;20032;-62
2022/11/02 09:14:07;;;;;;;13.57;3.97;;;;;;;11.85;100.00;99221.41;5089173;28;20032;-62
2022/11/02 09:16:32;;;;;;;9.00;4.65;;;;;;;11.86;100.00;99210.81;5090470;28;20130;-62
2022/11/02 09:18:58;;;;;;;13.57;4.30;;;;;;;11.93;100.00;99213.72;5074926;28;20036;-62
2022/11/02 09:21:24;;;;;;;9.77;3.85;;;;;;;11.65;100.00;99179.72;5091960;28;20027;-62
2022/11/02 09:23:49;;;;;;;8.57;3.90;;;;;;;11.81;100.00;99188.75;5091704;28;20141;-62
2022/11/02 09:26:15;;;;;;;8.93;3.75;;;;;;;12.01;100.00;99207.81;5095776;28;20040;-62
2022/11/02 09:28:40;;;;;;;13.02;3.47;;;;;;;12.08;100.00;99225.41;5099055;27;20039;-62
2022/11/02 09:31:05;;;;;;;9.85;3.92;;;;;;;12.10;100.00;99207.81;5082955;28;20027;-62
2022/11/02 09:33:33;;;;;;;13.63;4.05;;;;;;;12.22;100.00;99208.47;5094356;28;20035;-62
2022/11/02 09:36:01;;;;;;;8.77;3.60;;;;;;;12.21;100.00;99203.41;5094101;28;20051;-62
2022/11/02 09:38:27;;;;;;;10.98;3.90;;;;;;;12.25;100.00;99210.81;5092552;28;20035;-62
2022/11/02 09:40:55;;;;;;;8.85;2.90;;;;;;;12.31;100.00;99218.06;5093927;28;20414;-62
2022/11/02 09:43:26;;;;;;;12.88;3.20;;;;;;;12.40;100.00;99208.56;5109530;27;20613;-62
2022/11/02 09:46:09;;;;;;;12.88;4.70;;;;;;;12.56;100.00;99197.53;5099779;28;20020;-62
2022/11/02 09:48:54;;;;;;;8.88;3.30;;;;;;;12.69;100.00;99200.66;5093167;28;20040;-63
2022/11/02 09:51:27;;;;;;;11.45;3.25;;;;;;;12.77;100.00;99202.53;5108203;27;20076;-63
2022/11/02 09:53:58;;;;;;;9.50;3.00;;;;;;;12.85;100.00;99201.78;5090198;27;20043;-62
2022/11/02 09:56:25;;;;;;;8.57;2.78;;;;;;;12.93;100.00;99198.50;5092111;28;20028;-61
2022/11/02 09:58:56;;;;;;;8.27;2.90;;;;;;;13.02;100.00;99187.97;5098550;27;20030;-61
2022/11/02 10:01:46;;;;;;;9.93;3.33;;;;;;;13.18;100.00;99194.34;5078743;28;20027;-61
2022/11/02 10:04:31;;;;;;;;;;;;;;;13.21;100.00;99187.03;5099237;28;20038;-61
2022/11/02 10:07:22;;;;;;;8.68;2.83;;;;;;;13.14;100.00;99183.41;5093590;28;19911;-61
2022/11/02 10:10:18;;;;;;;7.50;2.78;;;;;;;13.19;100.00;99178.53;5093746;28;20027;-61
2022/11/02 10:12:50;;;;;;;11.65;3.45;;;;;;;13.34;100.00;99178.06;5092004;27;20803;-61
2022/11/02 10:15:22;;;;;;;8.43;3.20;;;;;;;13.42;100.00;99170.31;5094797;28;20466;-61
2022/11/02 10:17:53;;;;;;;9.43;2.45;;;;;;;13.41;100.00;99172.06;5094635;28;20213;-61
2022/11/02 10:20:27;;;;;;;9.90;3.10;;;;;;;13.51;100.00;99166.81;5094581;28;20027;-61
2022/11/02 10:23:02;;;;;;;13.70;3.58;;;;;;;13.42;100.00;99162.47;5094975;27;20024;-61
2022/11/02 10:25:27;;;;;;;12.23;2.83;;;;;;;13.53;100.00;99162.25;5096702;27;20032;-61
2022/11/02 10:28:02;;;;;;;8.30;2.38;;;;;;;13.60;100.00;99160.66;5080632;28;20330;-60
2022/11/02 10:30:28;;;;;;;9.05;3.03;;;;;;;13.71;100.00;99148.31;5100561;27;20785;-60
2022/11/02 10:32:55;;;;;;;7.20;2.63;;;;;;;13.65;100.00;99152.38;5085948;27;20038;-60
2022/11/02 10:35:40;;;;;;;6.43;2.45;;;;;;;13.70;100.00;99146.69;5097210;27;20036;-60
2022/11/02 10:38:17;;;;;;;6.95;2.10;;;;;;;13.83;96.70;99147.94;5099568;27;20028;-60
2022/11/02 10:41:10;;;;;;;7.30;2.13;;;;;;;13.75;97.96;99111.28;5083510;28;20028;-60
2022/11/02 10:44:11;;;;;;;8.80;2.55;;;;;;;13.89;99.03;99138.69;5083711;28;20513;-60
2022/11/02 10:47:01;;;;;;;12.27;2.33;;;;;;;13.98;97.59;99145.59;5084367;28;20055;-60
2022/11/02 10:49:38;;;;;;;9.52;2.35;;;;;;;14.07;91.53;99136.00;5100007;27;20031;-60
2022/11/02 10:52:04;;;;;;;10.85;2.45;;;;;;;13.97;92.40;99102.13;5085632;28;20019;-61
2022/11/02 10:54:31;;;;;;;9.95;2.42;;;;;;;14.10;94.89;99121.81;5101639;27;20035;-60
2022/11/02 10:56:57;;;;;;;10.88;2.72;;;;;;;14.30;92.93;99130.25;5095358;27;20031;-61
2022/11/02 10:59:23;;;;;;;8.13;2.30;;;;;;;14.02;92.42;99076.34;5096315;27;20024;-60
2022/11/02 11:01:57;;;;;;;10.95;2.40;;;;;;;14.43;92.88;99125.41;5098464;27;20378;-60
2022/11/02 11:04:25;;;;;;;7.15;2.22;;;;;;;14.27;91.73;99099.16;5085157;28;20030;-60
2022/11/02 11:06:50;;;;;;;9.20;2.40;;;;;;;14.49;92.55;99123.94;5081717;28;20698;-61
2022/11/02 11:09:22;;;;;;;11.60;2.60;;;;;;;14.56;92.45;99117.91;5097341;27;20099;-61
2022/11/02 11:11:59;;;;;;;9.90;2.60;;;;;;;14.39;90.16;99069.97;5084378;28;20024;-61
2022/11/02 11:14:48;;;;;;;8.55;2.55;;;;;;;14.66;92.57;99119.63;5084532;28;20425;-62
2022/11/02 11:17:17;;;;;;;8.45;2.58;;;;;;;14.61;94.33;99104.41;5095510;27;20024;-61
2022/11/02 11:19:53;;;;;;;9.27;2.47;;;;;;;14.67;93.87;99102.94;5098291;27;20037;-61
2022/11/02 11:22:31;;;;;;;7.60;2.30;;;;;;;14.71;97.64;99099.03;5084212;28;20024;-61
2022/11/02 11:25:12;;;;;;;7.65;2.50;;;;;;;14.73;97.99;99097.06;5091021;28;20080;-61
2022/11/02 11:27:44;;;;;;;11.18;3.03;;;;;;;14.72;98.73;99098.88;5081655;28;20031;-62
2022/11/02 11:30:23;;;;;;;9.52;2.60;;;;;;;14.48;98.77;99064.78;5085853;28;20024;-61
2022/11/02 11:32:49;;;;;;;10.52;2.50;;;;;;;14.68;98.80;99088.91;5083033;28;20657;-61
2022/11/02 11:35:17;;;;;;;7.20;2.30;;;;;;;14.67;96.24;99093.28;5095837;27;21247;-61
2022/11/02 11:38:11;;;;;;;9.05;2.28;;;;;;;14.69;92.82;99095.75;5096845;27;20111;-61
2022/11/02 11:40:38;;;;;;;9.98;2.15;;;;;;;14.77;93.49;99091.38;5086065;28;20684;-61
2022/11/02 11:43:09;;;;;;;5.78;1.85;;;;;;;14.79;94.16;99076.31;5083323;28;20359;-61
2022/11/02 11:45:35;;;;;;;9.90;2.45;;;;;;;14.93;92.95;99087.97;5092447;28;20036;-61
2022/11/02 11:48:39;;;;;;;12.20;3.38;;;;;;;14.94;95.17;99080.94;5087400;28;21135;-61